Grinnell, IA

4:49 AM CST on February 24, 2018 (GMT -0600)
Grinnell Regional

Weather History for KGGI - March, 2013

Change the Weather History Date:

Tuesday, March 5, 2013

  Actual Average (KTNU) Record (KTNU)
Temperature  
Mean Temperature 27 °F -  
Max Temperature 29 °F 40 °F 73 °F (2009)
Min Temperature 25 °F 23 °F -2 °F (2015)
Degree Days  
Heating Degree Days 38    
Moisture  
Dew Point 25 °F    
Average Humidity 89    
Maximum Humidity 99    
Minimum Humidity 77    
Precipitation  
Precipitation 0.01 in - - ()
Sea Level Pressure  
Sea Level Pressure 30.02 in    
Wind  
Wind Speed 13 mph (NW)    
Max Wind Speed 25 mph    
Max Gust Speed 31 mph    
Visibility 6 miles    
Events Snow    
Averages and records for this station are not official NWS values.
T = Trace of Precipitation, MM = Missing Value Source: NWS Daily Summary

Daily Weather History Graph

Daily Weather History Graph

Search for Another Location

Airport or City:

Trip Planner

Search our weather history database for the weather conditions in past years. The results will help you decide how hot, cold, wet, or windy it might be!

Date:

Astronomy

Mar. 05, 2013 Rise Set
Actual Time 6:38 AM CST 6:06 PM CST
Civil Twilight 6:11 AM CST 6:34 PM CST
Nautical Twilight 5:38 AM CST 7:06 PM CST
Astronomical Twilight 5:06 AM CST 7:38 PM CST
Moon 1:55 AM CST (3/5) 11:42 AM CST (3/5)
Length of Visible Light 12h 23m
Length of Day
11h 27m
Last Quarter, 40% of the Moon is Illuminated
Mar 5
Last Quarter
Mar 11
New
Mar 19
First Quarter
Mar 27
Full
Apr 2
Last Quarter

Hourly Weather History & Observations

Time (CST) Temp. Windchill Dew Point Humidity Pressure Visibility Wind Dir Wind Speed Gust Speed Precip Events Conditions
12:15 AM 28.4 °F 21.2 °F 26.6 °F 93% 29.93 in 1.5 mi ENE 6.9 mph - N/A Snow Light Snow
12:35 AM 28.0 °F 20.8 °F 26.6 °F 94% 29.93 in 2.0 mi ENE 6.9 mph - N/A Snow Light Snow
12:55 AM 27.5 °F 21.1 °F 26.6 °F 96% 29.93 in 2.0 mi NE 5.8 mph - N/A Snow Light Snow
1:15 AM 27.5 °F 23.6 °F 26.6 °F 96% 29.93 in 1.8 mi NE 3.5 mph - N/A Snow Light Snow
1:55 AM 27.3 °F 22.0 °F 26.6 °F 97% 29.92 in 1.5 mi NE 4.6 mph - N/A Snow Light Snow
2:35 AM 27.3 °F - 26.6 °F 97% 29.92 in 0.8 mi Calm Calm - N/A Snow Snow
2:55 AM 27.1 °F - 26.6 °F 98% 29.92 in 1.2 mi Calm Calm - N/A Snow Light Snow
3:15 AM 27.0 °F 21.6 °F 26.4 °F 98% 29.92 in 1.2 mi WNW 4.6 mph - N/A Snow Light Snow
3:35 AM 27.0 °F 21.6 °F 26.4 °F 98% 29.92 in 1.8 mi WNW 4.6 mph - N/A Snow Light Snow
3:55 AM 26.8 °F 20.2 °F 26.6 °F 99% 29.92 in 1.5 mi WNW 5.8 mph - N/A Snow Light Snow
4:15 AM 27.0 °F 23.0 °F 26.6 °F 99% 29.92 in 1.2 mi NW 3.5 mph - 0.01 in Snow Light Snow
4:35 AM 27.0 °F 21.6 °F 26.6 °F 99% 29.93 in 1.5 mi West 4.6 mph - 0.01 in Snow Light Snow
4:55 AM 27.0 °F 20.5 °F 26.6 °F 99% 29.93 in 1.5 mi WNW 5.8 mph - 0.01 in Snow Light Snow
5:15 AM 26.6 °F 20.0 °F 26.4 °F 99% 29.92 in 2.5 mi WNW 5.8 mph - N/A Snow Light Snow
5:35 AM 26.6 °F 19.1 °F 26.2 °F 99% 29.94 in 3.0 mi West 6.9 mph - N/A Snow Light Snow
5:55 AM 27.1 °F 17.5 °F 26.6 °F 98% 29.94 in 4.0 mi WNW 10.4 mph - N/A   Overcast
6:15 AM 27.9 °F 17.3 °F 27.1 °F 97% 29.94 in 5.0 mi WNW 12.7 mph - N/A Snow Light Snow
6:55 AM 28.2 °F 15.9 °F 25.7 °F 90% 29.94 in 2.0 mi WNW 17.3 mph 25.3 mph N/A Snow Light Snow
7:15 AM 27.5 °F 15.4 °F 25.7 °F 93% 29.95 in 1.8 mi WNW 16.1 mph - N/A Snow Light Snow
7:35 AM 27.0 °F 14.3 °F 25.2 °F 93% 29.95 in 2.0 mi WNW 17.3 mph - N/A Snow Light Snow
7:55 AM 27.0 °F 13.9 °F 24.3 °F 90% 29.96 in 10.0 mi WNW 18.4 mph - N/A   Overcast
8:15 AM 27.3 °F 14.4 °F 24.1 °F 88% 29.97 in 10.0 mi WNW 18.4 mph 24.2 mph N/A   Overcast
8:35 AM 27.0 °F 13.9 °F 23.9 °F 88% 29.97 in 10.0 mi WNW 18.4 mph 23.0 mph N/A   Overcast
8:55 AM 27.0 °F 13.2 °F 22.8 °F 84% 29.97 in 10.0 mi WNW 20.7 mph 24.2 mph N/A Snow Light Snow
9:15 AM 26.6 °F 12.4 °F 22.6 °F 85% 29.97 in 5.0 mi WNW 21.9 mph - N/A Snow Light Snow
9:35 AM 27.0 °F 13.2 °F 22.8 °F 84% 29.97 in 5.0 mi WNW 20.7 mph 25.3 mph N/A Snow Light Snow
9:55 AM 27.0 °F 13.2 °F 22.1 °F 82% 29.96 in 5.0 mi WNW 20.7 mph 26.5 mph N/A Snow Light Snow
10:15 AM 27.7 °F 13.1 °F 22.1 °F 80% 29.96 in 7.0 mi WNW 24.2 mph 28.8 mph N/A   Overcast
10:35 AM 27.9 °F 14.4 °F 22.3 °F 80% 29.96 in 10.0 mi WNW 20.7 mph 26.5 mph N/A   Mostly Cloudy
10:55 AM 28.0 °F 13.6 °F 22.1 °F 78% 29.96 in 10.0 mi WNW 24.2 mph 28.8 mph N/A   Scattered Clouds
11:15 AM 28.4 °F 14.1 °F 22.3 °F 78% 29.96 in 5.0 mi WNW 24.2 mph 29.9 mph N/A   Haze
11:35 AM 29.1 °F 16.4 °F 22.6 °F 77% 29.96 in 10.0 mi WNW 19.6 mph 24.2 mph N/A   Mostly Cloudy
11:55 AM 29.7 °F 16.4 °F 23.5 °F 78% 29.97 in 10.0 mi WNW 21.9 mph 26.5 mph N/A   Mostly Cloudy
12:15 PM 28.9 °F 15.4 °F 22.8 °F 78% 29.97 in 10.0 mi WNW 21.9 mph 26.5 mph N/A   Overcast
12:35 PM 28.9 °F 15.1 °F 23.0 °F 78% 29.97 in 10.0 mi WNW 23.0 mph 27.6 mph N/A   Overcast
12:55 PM 28.8 °F 15.9 °F 23.4 °F 80% 29.97 in 10.0 mi WNW 19.6 mph - N/A   Overcast
1:15 PM 29.1 °F 16.4 °F 23.9 °F 81% 29.97 in 7.0 mi WNW 19.6 mph - N/A Snow Light Snow
1:35 PM 28.8 °F 17.0 °F 24.6 °F 84% 29.97 in 1.5 mi WNW 16.1 mph 25.3 mph N/A Snow Light Snow
1:55 PM 28.6 °F 15.6 °F 24.6 °F 85% 29.98 in 2.5 mi WNW 19.6 mph - N/A Snow Light Snow
2:15 PM 28.9 °F 16.1 °F 25.7 °F 88% 29.98 in 2.0 mi WNW 19.6 mph 25.3 mph N/A Snow Light Snow
2:35 PM 29.1 °F 16.7 °F 25.7 °F 87% 30.00 in 2.5 mi WNW 18.4 mph 24.2 mph N/A Snow Light Snow
2:55 PM 29.3 °F 16.6 °F 26.2 °F 88% 30.00 in 4.0 mi WNW 19.6 mph 25.3 mph N/A Snow Light Snow
3:15 PM 29.3 °F 15.0 °F 26.6 °F 90% 30.01 in 4.0 mi NW 25.3 mph 31.1 mph N/A   Overcast
3:35 PM 29.1 °F 15.4 °F 26.2 °F 89% 30.01 in 2.0 mi NW 23.0 mph - N/A   Overcast
3:55 PM 29.1 °F 15.7 °F 26.1 °F 88% 30.02 in 3.0 mi WNW 21.9 mph 26.5 mph N/A   Overcast
4:15 PM 29.3 °F 15.9 °F 26.1 °F 88% 30.04 in 4.0 mi NW 21.9 mph 25.3 mph N/A   Overcast
4:35 PM 29.3 °F 16.2 °F 26.2 °F 88% 30.04 in 4.0 mi WNW 20.7 mph 25.3 mph N/A Snow Light Snow
4:55 PM 29.3 °F 16.6 °F 26.6 °F 90% 30.05 in 3.0 mi NW 19.6 mph 25.3 mph N/A Snow Light Snow
5:15 PM 29.1 °F 16.4 °F 27.1 °F 92% 30.06 in 1.5 mi NW 19.6 mph 26.5 mph N/A Snow Light Snow
5:35 PM 29.1 °F 16.7 °F 26.6 °F 90% 30.08 in 2.5 mi NW 18.4 mph - N/A   Overcast
5:55 PM 28.9 °F 15.8 °F 25.7 °F 88% 30.09 in 7.0 mi NW 20.7 mph 27.6 mph N/A   Overcast
6:15 PM 28.8 °F 14.9 °F 25.0 °F 86% 30.10 in 7.0 mi NW 23.0 mph - N/A   Overcast
6:35 PM 28.4 °F 14.7 °F 25.0 °F 87% 30.11 in 10.0 mi NW 21.9 mph - N/A   Overcast
6:55 PM 28.2 °F 15.2 °F 24.1 °F 84% 30.13 in 10.0 mi NW 19.6 mph 25.3 mph N/A   Overcast
7:15 PM 28.2 °F 13.9 °F 23.0 °F 81% 30.13 in 7.0 mi NNW 24.2 mph 29.9 mph N/A   Overcast
7:35 PM 27.7 °F 16.6 °F 23.5 °F 84% 30.14 in 10.0 mi NW 13.8 mph 18.4 mph N/A   Overcast
7:55 PM 27.1 °F 14.1 °F 24.4 °F 90% 30.14 in 7.0 mi NW 18.4 mph 23.0 mph N/A   Overcast
8:15 PM 27.3 °F 14.8 °F 24.1 °F 88% 30.16 in 7.0 mi NW 17.3 mph - N/A   Overcast
8:35 PM 27.1 °F 14.5 °F 23.9 °F 88% 30.17 in 10.0 mi NW 17.3 mph - N/A   Overcast
8:55 PM 27.1 °F 13.4 °F 23.4 °F 86% 30.17 in 10.0 mi NW 20.7 mph 26.5 mph N/A   Overcast
9:15 PM 27.0 °F 14.3 °F 23.2 °F 86% 30.18 in 10.0 mi NW 17.3 mph - N/A   Overcast
9:35 PM 26.8 °F 14.9 °F 23.4 °F 87% 30.19 in 10.0 mi NW 15.0 mph - N/A   Overcast
9:55 PM 26.6 °F 13.8 °F 23.5 °F 88% 30.20 in 10.0 mi NW 17.3 mph - N/A   Overcast
10:15 PM 26.6 °F 13.8 °F 23.4 °F 88% 30.21 in 10.0 mi NW 17.3 mph 23.0 mph N/A Snow Light Snow
10:35 PM 26.4 °F 13.6 °F 23.0 °F 87% 30.21 in 10.0 mi NW 17.3 mph 24.2 mph N/A   Overcast
10:55 PM 26.1 °F 15.0 °F 23.0 °F 88% 30.22 in 10.0 mi NW 12.7 mph - N/A   Overcast
11:15 PM 25.7 °F 14.6 °F 22.8 °F 89% 30.22 in 10.0 mi NW 12.7 mph - N/A   Overcast
11:35 PM 25.7 °F 15.1 °F 22.8 °F 89% 30.22 in 10.0 mi NNW 11.5 mph - N/A   Overcast
11:55 PM 25.7 °F 14.0 °F 22.6 °F 88% 30.23 in 10.0 mi NW 13.8 mph - N/A   Overcast